Knott, Texas
Current Conditions -  °F | °C
As of 9:35 PM on Wednesday 22 Oct 2014 (Local Time) from KBPG Reporting Station
Overcast Overcast  
Wind Chill: 64°   Ceiling: 12000
Heat Index: 64°   Visibility: 10mi
Dew Point: 54°   Wind: 12mph
Humidity: 70%   Direction: 150°SSE
Pressure: 30.16"   Gusts: NA
Location:  32.4°N, 101.64°W
Report Text: KBPG 230235Z AUTO 15010KT 10SM OVC120 18/12 A3016 RMK AO2 T01760120
Loading
Personal Weather Stations






























Interactive Weather Map
Tropical Storm Tracking
New forecast layout! Learn more

10-Day Weather Forecast

Advertisements
Track Severe Weather on mobile